createdAt,value
2018-08-09T00:03:09.136Z,7.30
2018-08-09T00:08:12.796Z,8.05
2018-08-09T00:13:16.187Z,8.00
2018-08-09T00:18:19.651Z,7.33
2018-08-09T00:23:23.184Z,7.77
2018-08-09T00:28:49.377Z,8.60
2018-08-09T01:07:41.499Z,8.10
2018-08-09T01:18:33.562Z,8.93
2018-08-09T01:23:41.048Z,8.78
2018-08-09T01:28:45.088Z,8.90
2018-08-09T01:39:01.886Z,9.20
2018-08-09T01:44:07.179Z,9.50
2018-08-09T01:49:10.926Z,9.30
2018-08-09T01:54:14.444Z,9.40
2018-08-09T01:59:24.962Z,9.67
2018-08-09T02:04:28.465Z,8.83
2018-08-09T02:09:34.057Z,9.10
2018-08-09T02:14:37.573Z,9.13
2018-08-09T02:19:41.185Z,9.10
2018-08-09T02:24:44.660Z,9.80
2018-08-09T02:29:48.212Z,10.03
2018-08-09T02:34:51.676Z,9.50
2018-08-09T02:39:55.224Z,10.30
2018-08-09T02:44:59.869Z,10.50
2018-08-09T02:50:04.818Z,10.35
2018-08-09T02:55:08.379Z,10.90
2018-08-09T03:00:11.979Z,11.33
2018-08-09T03:05:15.507Z,10.50
2018-08-09T03:10:18.905Z,11.60
2018-08-09T03:15:22.370Z,12.58
2018-08-09T03:20:25.872Z,10.30
2018-08-09T03:25:31.394Z,12.23
2018-08-09T03:30:35.979Z,12.07
2018-08-09T03:35:40.295Z,11.90
2018-08-09T03:40:43.915Z,12.40
2018-08-09T03:45:47.309Z,13.10
2018-08-09T03:50:50.687Z,12.67
2018-08-09T03:55:54.205Z,11.90
2018-08-09T04:00:58.498Z,13.28
2018-08-09T04:11:33.547Z,12.23
2018-08-09T04:16:40.957Z,12.20
2018-08-09T04:21:44.684Z,12.10
2018-08-09T04:26:48.226Z,11.95
2018-08-09T04:31:52.697Z,12.03
2018-08-09T04:36:58.722Z,11.60
2018-08-09T04:42:02.250Z,12.47
2018-08-09T04:47:06.251Z,11.65
2018-08-09T04:52:09.778Z,12.80
2018-08-09T04:57:13.388Z,11.65
2018-08-09T05:02:16.904Z,12.40
2018-08-09T05:07:20.513Z,12.40
2018-08-09T05:12:24.202Z,11.70
2018-08-09T05:17:28.018Z,12.40
2018-08-09T05:22:31.747Z,11.53
2018-08-09T05:27:35.670Z,11.03
2018-08-09T05:32:39.187Z,11.25
2018-08-09T05:37:43.048Z,11.78
2018-08-09T05:42:46.928Z,12.20
2018-08-09T05:47:50.493Z,11.70
2018-08-09T05:52:54.083Z,11.40
2018-08-09T05:57:57.629Z,12.37
2018-08-09T06:03:01.056Z,11.30
2018-08-09T06:08:04.670Z,11.00
2018-08-09T06:13:08.904Z,11.97
2018-08-09T06:18:22.712Z,10.00
2018-08-09T06:23:26.165Z,11.40
2018-08-09T06:28:29.708Z,11.10
2018-08-09T06:33:33.311Z,11.50
2018-08-09T06:38:37.805Z,10.65
2018-08-09T06:43:41.321Z,10.73
2018-08-09T06:48:46.743Z,10.58
2018-08-09T06:54:00.490Z,10.80
2018-08-09T06:59:05.003Z,12.20
2018-08-09T07:04:11.968Z,10.40
2018-08-09T07:09:15.492Z,9.30
2018-08-09T07:14:22.504Z,9.33
2018-08-09T07:19:31.856Z,9.20
2018-08-09T07:24:36.429Z,8.90
2018-08-09T07:29:39.927Z,8.25
2018-08-09T07:34:55.401Z,7.77
2018-08-09T07:45:40.902Z,8.28
2018-08-09T07:50:44.273Z,7.80
2018-08-09T07:55:47.784Z,7.17
2018-08-09T08:00:51.332Z,7.67
2018-08-09T08:05:54.988Z,6.67
2018-08-09T08:10:58.496Z,7.30
2018-08-09T08:16:02.055Z,6.90
2018-08-09T08:21:07.513Z,6.77
2018-08-09T08:26:11.133Z,7.00
2018-08-09T08:31:14.590Z,6.55
2018-08-09T08:36:25.096Z,6.42
2018-08-09T08:41:53.008Z,6.22
2018-08-09T08:46:56.388Z,6.12
2018-08-09T08:52:00.920Z,6.30
2018-08-09T08:57:04.433Z,5.42
2018-08-09T09:02:07.958Z,5.60
2018-08-09T09:07:11.611Z,6.43
2018-08-09T09:12:15.125Z,5.30
2018-08-09T09:17:18.798Z,5.60
2018-08-09T09:22:23.439Z,5.37
2018-08-09T09:27:26.938Z,5.78
2018-08-09T09:32:31.435Z,5.63
2018-08-09T09:37:38.448Z,5.40
2018-08-09T09:42:42.549Z,6.00
2018-08-09T09:47:46.123Z,5.80
2018-08-09T09:52:49.945Z,6.17
2018-08-09T09:57:53.432Z,5.90
2018-08-09T10:02:56.976Z,5.10
2018-08-09T10:08:00.456Z,6.20
2018-08-09T10:13:03.985Z,5.87
2018-08-09T10:18:07.498Z,6.20
2018-08-09T10:23:10.938Z,5.78
2018-08-09T10:28:14.969Z,5.50
2018-08-09T10:33:31.279Z,5.53
2018-08-09T10:38:36.208Z,5.78
2018-08-09T10:43:41.170Z,5.37
2018-08-09T10:48:44.771Z,5.22
2018-08-09T10:53:48.452Z,5.50
2018-08-09T10:58:57.489Z,5.50
2018-08-09T11:09:30.166Z,5.10
2018-08-09T11:14:33.681Z,5.30
2018-08-09T11:19:37.454Z,5.10
2018-08-09T11:24:42.488Z,4.72
2018-08-09T11:29:46.239Z,4.60
2018-08-09T11:34:50.059Z,4.45
2018-08-09T11:39:54.293Z,4.62
2018-08-09T11:44:58.589Z,4.60
2018-08-09T11:50:02.244Z,4.78
2018-08-09T11:55:05.875Z,4.60
2018-08-09T12:00:09.402Z,3.98
2018-08-09T12:05:12.996Z,3.90
2018-08-09T12:10:16.523Z,3.80
2018-08-09T12:15:21.248Z,4.08
2018-08-09T12:20:24.613Z,4.30
2018-08-09T12:25:28.242Z,3.70
2018-08-09T12:30:31.632Z,3.60
2018-08-09T12:35:35.053Z,4.20
2018-08-09T12:40:38.416Z,4.00
2018-08-09T12:45:42.937Z,3.92
2018-08-09T12:50:46.500Z,3.33
2018-08-09T12:55:49.904Z,3.98
2018-08-09T13:00:53.251Z,3.95
2018-08-09T13:05:56.683Z,4.70
2018-08-09T13:11:01.173Z,3.70
2018-08-09T13:16:05.737Z,4.62
2018-08-09T13:21:09.111Z,4.60
2018-08-09T13:26:12.473Z,4.80
2018-08-09T13:31:15.964Z,10.50
2018-08-09T13:45:56.948Z,3.47
2018-08-09T13:51:00.361Z,4.15
2018-08-09T13:56:04.267Z,3.20
2018-08-09T14:01:10.008Z,3.00
2018-08-09T14:06:14.265Z,3.00
2018-08-09T14:11:18.629Z,3.12
2018-08-09T14:16:23.289Z,3.25
2018-08-09T14:21:26.840Z,5.10
2018-08-09T14:26:31.340Z,3.70
2018-08-09T14:31:35.107Z,4.00
2018-08-09T14:36:39.621Z,3.60
2018-08-09T14:41:44.088Z,3.70
2018-08-09T14:46:47.519Z,3.30
2018-08-09T14:51:50.930Z,3.70
2018-08-09T14:56:54.436Z,3.50
2018-08-09T15:01:58.818Z,3.52
2018-08-09T15:07:02.193Z,3.15
2018-08-09T15:12:05.752Z,3.60
2018-08-09T15:17:10.759Z,3.40
2018-08-09T15:22:15.184Z,3.20
2018-08-09T15:27:18.885Z,3.40
2018-08-09T15:32:22.485Z,3.37
2018-08-09T15:37:27.152Z,3.55
2018-08-09T15:42:31.792Z,4.30
2018-08-09T15:47:36.223Z,3.65
2018-08-09T15:52:39.867Z,3.90
2018-08-09T15:57:44.648Z,3.70
2018-08-09T16:02:48.379Z,3.37
2018-08-09T16:07:52.997Z,3.90
2018-08-09T16:12:56.734Z,3.40
2018-08-09T16:18:00.328Z,3.50
2018-08-09T16:23:04.990Z,3.90
2018-08-09T16:28:08.497Z,3.50
2018-08-09T16:33:12.034Z,3.55
2018-08-09T16:38:16.817Z,2.87
2018-08-09T16:43:20.389Z,4.60
2018-08-09T16:48:23.903Z,2.92
2018-08-09T16:53:32.756Z,2.37
2018-08-09T16:58:36.815Z,2.90
2018-08-09T17:03:42.454Z,2.42
2018-08-09T17:08:49.593Z,2.50
2018-08-09T17:13:55.100Z,2.43
2018-08-09T17:19:01.324Z,2.50
2018-08-09T17:24:05.555Z,2.60
2018-08-09T17:29:12.826Z,2.73
2018-08-09T17:34:16.488Z,2.50
2018-08-09T17:39:20.512Z,2.40
2018-08-09T17:44:24.185Z,2.47
2018-08-09T17:49:27.699Z,2.85
2018-08-09T17:54:31.238Z,2.60
2018-08-09T17:59:34.819Z,2.87
2018-08-09T18:04:38.317Z,2.70
2018-08-09T18:09:41.810Z,2.70
2018-08-09T18:14:45.909Z,2.80
2018-08-09T18:19:49.459Z,2.80
2018-08-09T18:24:53.124Z,3.00
2018-08-09T18:29:56.614Z,3.25
2018-08-09T18:35:00.609Z,2.70
2018-08-09T18:40:12.868Z,2.67
2018-08-09T18:45:16.579Z,2.52
2018-08-09T18:50:22.545Z,3.30
2018-08-09T18:55:26.171Z,2.80
2018-08-09T19:00:30.482Z,3.00
2018-08-09T19:05:33.904Z,2.60
2018-08-09T19:10:41.678Z,2.70
2018-08-09T19:15:45.324Z,2.40
2018-08-09T19:20:50.042Z,2.55
2018-08-09T19:25:58.508Z,2.80
2018-08-09T19:31:07.913Z,2.80
2018-08-09T19:36:11.552Z,2.52
2018-08-09T19:41:20.770Z,2.20
2018-08-09T19:46:24.155Z,2.30
2018-08-09T19:51:28.258Z,2.20
2018-08-09T19:56:32.303Z,2.00
2018-08-09T20:01:35.963Z,2.00
2018-08-09T20:06:39.361Z,2.40
2018-08-09T20:11:50.608Z,2.40
2018-08-09T20:16:54.294Z,2.00
2018-08-09T20:21:57.769Z,1.92
2018-08-09T20:27:01.233Z,2.30
2018-08-09T20:32:04.847Z,2.20
2018-08-09T20:37:08.429Z,1.92
2018-08-09T20:42:11.897Z,2.12
2018-08-09T20:47:28.667Z,2.00
2018-08-09T20:52:32.174Z,1.80
2018-08-09T20:57:35.984Z,1.90
2018-08-09T21:02:39.497Z,1.90
2018-08-09T21:07:42.930Z,2.00
2018-08-09T21:12:46.397Z,1.90
2018-08-09T21:17:50.016Z,1.77
2018-08-09T21:22:54.044Z,2.07
2018-08-09T21:27:57.661Z,1.80
2018-08-09T21:33:01.394Z,1.70
2018-08-09T21:38:06.090Z,1.65
2018-08-09T21:43:13.425Z,1.50
2018-08-09T21:48:16.976Z,1.50
2018-08-09T21:53:20.464Z,1.52
2018-08-09T21:58:24.301Z,1.40
2018-08-09T22:03:30.156Z,1.50
2018-08-09T22:08:44.738Z,1.30
2018-08-09T22:13:53.721Z,1.70
2018-08-09T22:19:03.251Z,1.50
2018-08-09T22:24:06.978Z,1.35
2018-08-09T22:29:12.507Z,1.50
2018-08-09T22:34:16.655Z,1.50
2018-08-09T22:39:20.145Z,1.40
2018-08-09T22:44:23.714Z,1.60
2018-08-09T22:49:27.275Z,1.70
2018-08-09T22:54:30.707Z,1.60
2018-08-09T22:59:34.147Z,1.60
2018-08-09T23:04:37.668Z,1.85
2018-08-09T23:09:42.214Z,1.80
2018-08-09T23:14:45.612Z,1.60
2018-08-09T23:19:50.001Z,1.70
2018-08-09T23:24:53.432Z,1.90
2018-08-09T23:29:57.128Z,1.50
2018-08-09T23:35:00.596Z,1.62
2018-08-09T23:40:13.701Z,1.50
2018-08-09T23:45:23.979Z,1.60
2018-08-09T23:50:27.456Z,1.60
2018-08-09T23:55:32.081Z,1.40
